sensor_id;sensor_type;location;lat;lon;timestamp;P1;durP1;ratioP1;P2;durP2;ratioP2
8407;SDS011;4241;48.452;9.216;2023-04-25T00:01:39;423.60;;;123.33;;
8407;SDS011;4241;48.452;9.216;2023-04-25T00:04:06;422.87;;;122.03;;
8407;SDS011;4241;48.452;9.216;2023-04-25T00:06:35;420.90;;;120.80;;
8407;SDS011;4241;48.452;9.216;2023-04-25T00:09:02;425.20;;;124.77;;
8407;SDS011;4241;48.452;9.216;2023-04-25T00:11:32;424.17;;;123.47;;
8407;SDS011;4241;48.452;9.216;2023-04-25T00:13:58;422.37;;;122.30;;
8407;SDS011;4241;48.452;9.216;2023-04-25T00:16:26;424.43;;;123.43;;
8407;SDS011;4241;48.452;9.216;2023-04-25T00:18:54;424.47;;;123.70;;
8407;SDS011;4241;48.452;9.216;2023-04-25T00:21:20;423.53;;;123.33;;
8407;SDS011;4241;48.452;9.216;2023-04-25T00:23:50;421.57;;;120.77;;
8407;SDS011;4241;48.452;9.216;2023-04-25T00:26:18;423.80;;;123.00;;
8407;SDS011;4241;48.452;9.216;2023-04-25T00:28:46;422.83;;;122.37;;
8407;SDS011;4241;48.452;9.216;2023-04-25T00:31:13;423.73;;;123.80;;
8407;SDS011;4241;48.452;9.216;2023-04-25T00:33:39;423.47;;;122.23;;
8407;SDS011;4241;48.452;9.216;2023-04-25T00:36:07;421.33;;;120.77;;
8407;SDS011;4241;48.452;9.216;2023-04-25T00:38:34;424.20;;;122.77;;
8407;SDS011;4241;48.452;9.216;2023-04-25T00:41:03;422.13;;;122.07;;
8407;SDS011;4241;48.452;9.216;2023-04-25T00:43:31;425.00;;;123.10;;
8407;SDS011;4241;48.452;9.216;2023-04-25T00:46:00;423.17;;;122.20;;
8407;SDS011;4241;48.452;9.216;2023-04-25T00:48:27;422.83;;;121.93;;
8407;SDS011;4241;48.452;9.216;2023-04-25T00:50:54;425.03;;;123.83;;
8407;SDS011;4241;48.452;9.216;2023-04-25T00:53:23;421.87;;;121.37;;
8407;SDS011;4241;48.452;9.216;2023-04-25T00:55:51;421.07;;;121.17;;
8407;SDS011;4241;48.452;9.216;2023-04-25T00:58:20;421.77;;;121.87;;
8407;SDS011;4241;48.452;9.216;2023-04-25T01:00:48;420.80;;;120.57;;
8407;SDS011;4241;48.452;9.216;2023-04-25T01:03:17;421.13;;;121.17;;
8407;SDS011;4241;48.452;9.216;2023-04-25T01:05:45;420.93;;;121.93;;
8407;SDS011;4241;48.452;9.216;2023-04-25T01:08:12;424.20;;;123.03;;
8407;SDS011;4241;48.452;9.216;2023-04-25T01:10:40;421.53;;;120.80;;
8407;SDS011;4241;48.452;9.216;2023-04-25T01:13:07;422.00;;;122.83;;
8407;SDS011;4241;48.452;9.216;2023-04-25T01:15:35;426.47;;;126.27;;
8407;SDS011;4241;48.452;9.216;2023-04-25T01:18:02;422.13;;;121.37;;
8407;SDS011;4241;48.452;9.216;2023-04-25T01:20:30;422.90;;;123.00;;
8407;SDS011;4241;48.452;9.216;2023-04-25T01:23:00;421.83;;;121.03;;
8407;SDS011;4241;48.452;9.216;2023-04-25T01:25:28;425.57;;;126.20;;
8407;SDS011;4241;48.452;9.216;2023-04-25T01:27:55;421.80;;;121.80;;
8407;SDS011;4241;48.452;9.216;2023-04-25T01:30:23;417.77;;;117.90;;
8407;SDS011;4241;48.452;9.216;2023-04-25T01:32:51;420.00;;;121.00;;
8407;SDS011;4241;48.452;9.216;2023-04-25T01:35:20;424.33;;;124.43;;
8407;SDS011;4241;48.452;9.216;2023-04-25T01:37:49;422.10;;;121.73;;
8407;SDS011;4241;48.452;9.216;2023-04-25T01:40:18;421.50;;;121.67;;
8407;SDS011;4241;48.452;9.216;2023-04-25T01:42:48;421.53;;;121.57;;
8407;SDS011;4241;48.452;9.216;2023-04-25T01:45:15;420.07;;;119.93;;
8407;SDS011;4241;48.452;9.216;2023-04-25T01:47:42;419.07;;;119.07;;
8407;SDS011;4241;48.452;9.216;2023-04-25T01:50:13;420.33;;;121.77;;
8407;SDS011;4241;48.452;9.216;2023-04-25T01:52:41;420.53;;;120.80;;
8407;SDS011;4241;48.452;9.216;2023-04-25T01:55:08;420.17;;;120.67;;
8407;SDS011;4241;48.452;9.216;2023-04-25T01:57:37;420.90;;;120.50;;
8407;SDS011;4241;48.452;9.216;2023-04-25T02:00:04;420.50;;;120.63;;
8407;SDS011;4241;48.452;9.216;2023-04-25T02:02:33;416.67;;;117.57;;
8407;SDS011;4241;48.452;9.216;2023-04-25T02:05:00;419.13;;;120.53;;
8407;SDS011;4241;48.452;9.216;2023-04-25T02:07:27;417.03;;;118.23;;
8407;SDS011;4241;48.452;9.216;2023-04-25T02:09:54;416.70;;;119.37;;
8407;SDS011;4241;48.452;9.216;2023-04-25T02:12:21;416.43;;;118.67;;
8407;SDS011;4241;48.452;9.216;2023-04-25T02:14:49;417.90;;;120.07;;
8407;SDS011;4241;48.452;9.216;2023-04-25T02:17:16;415.83;;;119.33;;
8407;SDS011;4241;48.452;9.216;2023-04-25T02:19:43;416.17;;;118.57;;
8407;SDS011;4241;48.452;9.216;2023-04-25T02:22:10;418.20;;;119.80;;
8407;SDS011;4241;48.452;9.216;2023-04-25T02:24:38;415.63;;;118.77;;
8407;SDS011;4241;48.452;9.216;2023-04-25T02:27:04;414.83;;;117.60;;
8407;SDS011;4241;48.452;9.216;2023-04-25T02:29:32;415.87;;;119.10;;
8407;SDS011;4241;48.452;9.216;2023-04-25T02:32:01;413.97;;;117.43;;
8407;SDS011;4241;48.452;9.216;2023-04-25T02:34:28;415.40;;;118.53;;
8407;SDS011;4241;48.452;9.216;2023-04-25T02:36:54;418.73;;;121.10;;
8407;SDS011;4241;48.452;9.216;2023-04-25T02:39:21;415.17;;;118.87;;
8407;SDS011;4241;48.452;9.216;2023-04-25T02:41:50;416.07;;;118.90;;
8407;SDS011;4241;48.452;9.216;2023-04-25T02:44:16;415.00;;;118.80;;
8407;SDS011;4241;48.452;9.216;2023-04-25T02:46:46;416.23;;;119.47;;
8407;SDS011;4241;48.452;9.216;2023-04-25T02:49:14;414.93;;;118.60;;
8407;SDS011;4241;48.452;9.216;2023-04-25T02:51:41;414.97;;;118.00;;
8407;SDS011;4241;48.452;9.216;2023-04-25T02:54:08;415.27;;;116.90;;
8407;SDS011;4241;48.452;9.216;2023-04-25T02:56:35;416.80;;;119.57;;
8407;SDS011;4241;48.452;9.216;2023-04-25T02:59:02;417.13;;;120.43;;
8407;SDS011;4241;48.452;9.216;2023-04-25T03:01:29;414.30;;;118.07;;
8407;SDS011;4241;48.452;9.216;2023-04-25T03:03:56;413.10;;;117.03;;
8407;SDS011;4241;48.452;9.216;2023-04-25T03:06:24;414.60;;;118.53;;
8407;SDS011;4241;48.452;9.216;2023-04-25T03:08:51;414.57;;;119.13;;
8407;SDS011;4241;48.452;9.216;2023-04-25T03:11:18;413.17;;;117.30;;
8407;SDS011;4241;48.452;9.216;2023-04-25T03:13:45;411.70;;;115.57;;
8407;SDS011;4241;48.452;9.216;2023-04-25T03:16:12;411.47;;;115.80;;
8407;SDS011;4241;48.452;9.216;2023-04-25T03:18:39;413.37;;;117.27;;
8407;SDS011;4241;48.452;9.216;2023-04-25T03:21:06;412.07;;;116.03;;
8407;SDS011;4241;48.452;9.216;2023-04-25T03:23:34;411.63;;;115.90;;
8407;SDS011;4241;48.452;9.216;2023-04-25T03:26:01;410.53;;;115.63;;
8407;SDS011;4241;48.452;9.216;2023-04-25T03:28:29;412.23;;;116.53;;
8407;SDS011;4241;48.452;9.216;2023-04-25T03:30:55;412.23;;;116.80;;
8407;SDS011;4241;48.452;9.216;2023-04-25T03:33:22;411.83;;;115.93;;
8407;SDS011;4241;48.452;9.216;2023-04-25T03:35:49;415.27;;;119.27;;
8407;SDS011;4241;48.452;9.216;2023-04-25T03:38:17;412.00;;;117.17;;
8407;SDS011;4241;48.452;9.216;2023-04-25T03:40:45;411.83;;;115.47;;
8407;SDS011;4241;48.452;9.216;2023-04-25T03:43:12;411.97;;;116.63;;
8407;SDS011;4241;48.452;9.216;2023-04-25T03:45:39;416.07;;;120.10;;
8407;SDS011;4241;48.452;9.216;2023-04-25T03:48:06;414.13;;;118.60;;
8407;SDS011;4241;48.452;9.216;2023-04-25T03:50:33;411.83;;;115.97;;
8407;SDS011;4241;48.452;9.216;2023-04-25T03:53:00;412.53;;;117.00;;
8407;SDS011;4241;48.452;9.216;2023-04-25T03:55:27;418.87;;;122.97;;
8407;SDS011;4241;48.452;9.216;2023-04-25T03:57:55;412.27;;;117.97;;
8407;SDS011;4241;48.452;9.216;2023-04-25T04:00:24;412.77;;;117.17;;
8407;SDS011;4241;48.452;9.216;2023-04-25T04:02:51;412.53;;;117.13;;
8407;SDS011;4241;48.452;9.216;2023-04-25T04:05:18;417.07;;;120.57;;
8407;SDS011;4241;48.452;9.216;2023-04-25T04:07:45;412.30;;;116.63;;
8407;SDS011;4241;48.452;9.216;2023-04-25T04:10:12;414.50;;;118.83;;
8407;SDS011;4241;48.452;9.216;2023-04-25T04:12:39;413.37;;;117.17;;
8407;SDS011;4241;48.452;9.216;2023-04-25T04:15:07;415.90;;;120.30;;
8407;SDS011;4241;48.452;9.216;2023-04-25T04:17:35;408.47;;;114.00;;
8407;SDS011;4241;48.452;9.216;2023-04-25T04:20:02;412.87;;;118.17;;
8407;SDS011;4241;48.452;9.216;2023-04-25T04:22:31;414.43;;;118.37;;
8407;SDS011;4241;48.452;9.216;2023-04-25T04:24:58;413.27;;;117.97;;
8407;SDS011;4241;48.452;9.216;2023-04-25T04:27:25;416.10;;;120.93;;
8407;SDS011;4241;48.452;9.216;2023-04-25T04:29:53;412.57;;;116.87;;
8407;SDS011;4241;48.452;9.216;2023-04-25T04:32:22;412.93;;;117.80;;
8407;SDS011;4241;48.452;9.216;2023-04-25T04:34:50;413.83;;;117.37;;
8407;SDS011;4241;48.452;9.216;2023-04-25T04:37:19;413.63;;;118.10;;
8407;SDS011;4241;48.452;9.216;2023-04-25T04:39:46;412.50;;;117.17;;
8407;SDS011;4241;48.452;9.216;2023-04-25T04:42:13;412.40;;;116.37;;
8407;SDS011;4241;48.452;9.216;2023-04-25T04:44:40;413.80;;;117.53;;
8407;SDS011;4241;48.452;9.216;2023-04-25T04:47:09;412.70;;;116.97;;
8407;SDS011;4241;48.452;9.216;2023-04-25T04:49:39;412.70;;;117.33;;
8407;SDS011;4241;48.452;9.216;2023-04-25T04:52:05;414.60;;;118.30;;
8407;SDS011;4241;48.452;9.216;2023-04-25T04:54:32;412.57;;;117.70;;
8407;SDS011;4241;48.452;9.216;2023-04-25T04:57:00;411.63;;;116.70;;
8407;SDS011;4241;48.452;9.216;2023-04-25T04:59:27;413.20;;;117.73;;
8407;SDS011;4241;48.452;9.216;2023-04-25T05:01:53;415.87;;;119.37;;
8407;SDS011;4241;48.452;9.216;2023-04-25T05:04:20;411.77;;;115.90;;
8407;SDS011;4241;48.452;9.216;2023-04-25T05:06:48;415.00;;;118.90;;
8407;SDS011;4241;48.452;9.216;2023-04-25T05:09:15;419.70;;;121.20;;
8407;SDS011;4241;48.452;9.216;2023-04-25T05:11:44;414.90;;;118.47;;
8407;SDS011;4241;48.452;9.216;2023-04-25T05:14:11;416.03;;;119.50;;
8407;SDS011;4241;48.452;9.216;2023-04-25T05:16:38;417.67;;;120.20;;
8407;SDS011;4241;48.452;9.216;2023-04-25T05:19:05;417.73;;;119.90;;
8407;SDS011;4241;48.452;9.216;2023-04-25T05:21:32;413.03;;;117.60;;
8407;SDS011;4241;48.452;9.216;2023-04-25T05:24:00;413.57;;;117.67;;
8407;SDS011;4241;48.452;9.216;2023-04-25T05:26:27;414.57;;;118.63;;
8407;SDS011;4241;48.452;9.216;2023-04-25T05:28:55;416.90;;;120.23;;
8407;SDS011;4241;48.452;9.216;2023-04-25T05:31:22;413.00;;;117.33;;
8407;SDS011;4241;48.452;9.216;2023-04-25T05:33:49;416.07;;;120.23;;
8407;SDS011;4241;48.452;9.216;2023-04-25T05:36:16;413.73;;;117.80;;
8407;SDS011;4241;48.452;9.216;2023-04-25T05:38:43;416.17;;;119.77;;
8407;SDS011;4241;48.452;9.216;2023-04-25T05:41:11;416.10;;;119.83;;
8407;SDS011;4241;48.452;9.216;2023-04-25T05:43:38;415.23;;;118.83;;
8407;SDS011;4241;48.452;9.216;2023-04-25T05:46:10;416.53;;;119.73;;
8407;SDS011;4241;48.452;9.216;2023-04-25T05:48:37;427.80;;;128.03;;
8407;SDS011;4241;48.452;9.216;2023-04-25T05:51:03;418.63;;;121.33;;
8407;SDS011;4241;48.452;9.216;2023-04-25T05:53:31;418.00;;;119.57;;
8407;SDS011;4241;48.452;9.216;2023-04-25T05:55:58;419.40;;;121.80;;
8407;SDS011;4241;48.452;9.216;2023-04-25T05:58:26;422.10;;;123.20;;
8407;SDS011;4241;48.452;9.216;2023-04-25T06:00:53;421.20;;;122.63;;
8407;SDS011;4241;48.452;9.216;2023-04-25T06:03:20;420.83;;;122.17;;
8407;SDS011;4241;48.452;9.216;2023-04-25T06:05:47;421.73;;;122.50;;
8407;SDS011;4241;48.452;9.216;2023-04-25T06:08:14;421.80;;;123.33;;
8407;SDS011;4241;48.452;9.216;2023-04-25T06:10:41;422.17;;;123.33;;
8407;SDS011;4241;48.452;9.216;2023-04-25T06:13:08;423.07;;;124.57;;
8407;SDS011;4241;48.452;9.216;2023-04-25T06:15:36;426.47;;;128.67;;
8407;SDS011;4241;48.452;9.216;2023-04-25T06:18:03;423.17;;;123.20;;
8407;SDS011;4241;48.452;9.216;2023-04-25T06:20:30;422.80;;;124.17;;
8407;SDS011;4241;48.452;9.216;2023-04-25T06:22:57;421.90;;;122.50;;
8407;SDS011;4241;48.452;9.216;2023-04-25T06:25:24;428.90;;;128.17;;
8407;SDS011;4241;48.452;9.216;2023-04-25T06:27:51;426.27;;;125.07;;
8407;SDS011;4241;48.452;9.216;2023-04-25T06:30:18;424.23;;;123.57;;
8407;SDS011;4241;48.452;9.216;2023-04-25T06:32:49;421.13;;;121.40;;
8407;SDS011;4241;48.452;9.216;2023-04-25T06:35:16;422.37;;;122.43;;
8407;SDS011;4241;48.452;9.216;2023-04-25T06:37:43;424.30;;;124.73;;
8407;SDS011;4241;48.452;9.216;2023-04-25T06:40:10;422.83;;;122.30;;
8407;SDS011;4241;48.452;9.216;2023-04-25T06:42:37;426.30;;;126.00;;
8407;SDS011;4241;48.452;9.216;2023-04-25T06:45:04;424.63;;;123.87;;
8407;SDS011;4241;48.452;9.216;2023-04-25T06:47:31;429.37;;;128.57;;
8407;SDS011;4241;48.452;9.216;2023-04-25T06:49:59;422.77;;;122.17;;
8407;SDS011;4241;48.452;9.216;2023-04-25T06:52:26;424.17;;;123.20;;
8407;SDS011;4241;48.452;9.216;2023-04-25T06:54:53;423.20;;;122.87;;
8407;SDS011;4241;48.452;9.216;2023-04-25T06:57:20;424.90;;;123.57;;
8407;SDS011;4241;48.452;9.216;2023-04-25T06:59:47;424.43;;;123.30;;
8407;SDS011;4241;48.452;9.216;2023-04-25T07:02:14;423.67;;;123.13;;
8407;SDS011;4241;48.452;9.216;2023-04-25T07:04:41;425.77;;;124.83;;
8407;SDS011;4241;48.452;9.216;2023-04-25T07:07:09;425.17;;;124.03;;
8407;SDS011;4241;48.452;9.216;2023-04-25T07:09:36;424.70;;;123.73;;
8407;SDS011;4241;48.452;9.216;2023-04-25T07:12:03;425.60;;;124.03;;
8407;SDS011;4241;48.452;9.216;2023-04-25T07:14:30;424.70;;;123.33;;
8407;SDS011;4241;48.452;9.216;2023-04-25T07:16:57;424.00;;;123.50;;
8407;SDS011;4241;48.452;9.216;2023-04-25T07:19:24;426.90;;;125.40;;
8407;SDS011;4241;48.452;9.216;2023-04-25T07:21:51;425.33;;;124.30;;
8407;SDS011;4241;48.452;9.216;2023-04-25T07:24:20;423.93;;;123.00;;
8407;SDS011;4241;48.452;9.216;2023-04-25T07:26:47;427.27;;;125.50;;
8407;SDS011;4241;48.452;9.216;2023-04-25T07:29:14;427.13;;;125.03;;
8407;SDS011;4241;48.452;9.216;2023-04-25T07:31:41;425.77;;;125.27;;
8407;SDS011;4241;48.452;9.216;2023-04-25T07:34:07;426.33;;;124.87;;
8407;SDS011;4241;48.452;9.216;2023-04-25T07:36:35;424.07;;;122.97;;
8407;SDS011;4241;48.452;9.216;2023-04-25T07:39:02;426.30;;;124.97;;
8407;SDS011;4241;48.452;9.216;2023-04-25T07:41:30;425.97;;;124.73;;
8407;SDS011;4241;48.452;9.216;2023-04-25T07:43:56;429.10;;;127.70;;
8407;SDS011;4241;48.452;9.216;2023-04-25T07:46:24;424.63;;;123.33;;
8407;SDS011;4241;48.452;9.216;2023-04-25T07:48:51;426.83;;;125.37;;
8407;SDS011;4241;48.452;9.216;2023-04-25T07:51:18;424.37;;;123.20;;
8407;SDS011;4241;48.452;9.216;2023-04-25T07:53:47;426.00;;;125.17;;
8407;SDS011;4241;48.452;9.216;2023-04-25T07:56:14;427.23;;;125.30;;
8407;SDS011;4241;48.452;9.216;2023-04-25T07:58:42;425.23;;;124.03;;
8407;SDS011;4241;48.452;9.216;2023-04-25T08:01:09;424.37;;;123.40;;
8407;SDS011;4241;48.452;9.216;2023-04-25T08:03:36;421.87;;;121.90;;
8407;SDS011;4241;48.452;9.216;2023-04-25T08:06:03;421.43;;;120.63;;
8407;SDS011;4241;48.452;9.216;2023-04-25T08:08:31;424.27;;;123.67;;
8407;SDS011;4241;48.452;9.216;2023-04-25T08:10:57;422.20;;;121.30;;
8407;SDS011;4241;48.452;9.216;2023-04-25T08:13:25;422.40;;;122.07;;
8407;SDS011;4241;48.452;9.216;2023-04-25T08:15:53;425.10;;;124.27;;
8407;SDS011;4241;48.452;9.216;2023-04-25T08:18:19;424.07;;;123.17;;
8407;SDS011;4241;48.452;9.216;2023-04-25T08:20:46;424.57;;;124.07;;
8407;SDS011;4241;48.452;9.216;2023-04-25T08:23:13;425.63;;;124.23;;
8407;SDS011;4241;48.452;9.216;2023-04-25T08:25:40;423.70;;;123.27;;
8407;SDS011;4241;48.452;9.216;2023-04-25T08:28:07;424.57;;;123.63;;
8407;SDS011;4241;48.452;9.216;2023-04-25T08:30:33;423.33;;;122.87;;
8407;SDS011;4241;48.452;9.216;2023-04-25T08:33:02;423.30;;;122.27;;
8407;SDS011;4241;48.452;9.216;2023-04-25T08:35:28;440.07;;;138.13;;
8407;SDS011;4241;48.452;9.216;2023-04-25T08:37:55;424.80;;;124.23;;
8407;SDS011;4241;48.452;9.216;2023-04-25T08:40:22;424.50;;;123.43;;
8407;SDS011;4241;48.452;9.216;2023-04-25T08:42:53;431.53;;;128.70;;
8407;SDS011;4241;48.452;9.216;2023-04-25T08:45:21;423.70;;;124.47;;
8407;SDS011;4241;48.452;9.216;2023-04-25T08:47:50;423.97;;;124.40;;
8407;SDS011;4241;48.452;9.216;2023-04-25T08:50:19;423.70;;;123.93;;
8407;SDS011;4241;48.452;9.216;2023-04-25T08:52:48;422.63;;;123.13;;
8407;SDS011;4241;48.452;9.216;2023-04-25T08:55:17;421.90;;;122.47;;
8407;SDS011;4241;48.452;9.216;2023-04-25T08:57:45;424.10;;;124.23;;
8407;SDS011;4241;48.452;9.216;2023-04-25T09:00:13;422.20;;;122.60;;
8407;SDS011;4241;48.452;9.216;2023-04-25T09:02:40;423.97;;;124.13;;
8407;SDS011;4241;48.452;9.216;2023-04-25T09:05:08;423.63;;;123.50;;
8407;SDS011;4241;48.452;9.216;2023-04-25T09:07:39;420.60;;;120.63;;
8407;SDS011;4241;48.452;9.216;2023-04-25T09:10:06;421.00;;;122.00;;
8407;SDS011;4241;48.452;9.216;2023-04-25T09:12:34;419.70;;;120.40;;
8407;SDS011;4241;48.452;9.216;2023-04-25T09:15:05;419.23;;;120.57;;
8407;SDS011;4241;48.452;9.216;2023-04-25T09:17:33;417.83;;;119.07;;
8407;SDS011;4241;48.452;9.216;2023-04-25T09:20:05;418.20;;;119.73;;
8407;SDS011;4241;48.452;9.216;2023-04-25T09:22:34;415.53;;;117.60;;
8407;SDS011;4241;48.452;9.216;2023-04-25T09:25:03;422.23;;;123.90;;
8407;SDS011;4241;48.452;9.216;2023-04-25T09:27:34;416.03;;;117.53;;
8407;SDS011;4241;48.452;9.216;2023-04-25T09:30:01;417.23;;;118.10;;
8407;SDS011;4241;48.452;9.216;2023-04-25T09:32:29;422.70;;;124.90;;
8407;SDS011;4241;48.452;9.216;2023-04-25T09:34:57;416.73;;;119.60;;
8407;SDS011;4241;48.452;9.216;2023-04-25T09:37:24;415.43;;;117.40;;
8407;SDS011;4241;48.452;9.216;2023-04-25T09:39:53;418.93;;;121.50;;
8407;SDS011;4241;48.452;9.216;2023-04-25T09:42:23;415.53;;;118.27;;
8407;SDS011;4241;48.452;9.216;2023-04-25T09:44:51;416.73;;;120.63;;
8407;SDS011;4241;48.452;9.216;2023-04-25T09:47:19;414.97;;;117.70;;
8407;SDS011;4241;48.452;9.216;2023-04-25T09:49:48;415.87;;;117.87;;
8407;SDS011;4241;48.452;9.216;2023-04-25T09:52:17;416.37;;;118.87;;
8407;SDS011;4241;48.452;9.216;2023-04-25T09:54:45;412.00;;;115.63;;
8407;SDS011;4241;48.452;9.216;2023-04-25T09:57:13;414.37;;;117.87;;
8407;SDS011;4241;48.452;9.216;2023-04-25T09:59:45;415.20;;;118.40;;
8407;SDS011;4241;48.452;9.216;2023-04-25T10:02:13;414.60;;;117.67;;
8407;SDS011;4241;48.452;9.216;2023-04-25T10:04:41;415.30;;;118.07;;
8407;SDS011;4241;48.452;9.216;2023-04-25T10:07:10;417.97;;;119.90;;
8407;SDS011;4241;48.452;9.216;2023-04-25T10:09:38;419.13;;;120.50;;
8407;SDS011;4241;48.452;9.216;2023-04-25T10:12:06;419.20;;;120.87;;
8407;SDS011;4241;48.452;9.216;2023-04-25T10:14:34;417.43;;;120.07;;
8407;SDS011;4241;48.452;9.216;2023-04-25T10:17:02;417.43;;;119.87;;
8407;SDS011;4241;48.452;9.216;2023-04-25T10:19:29;419.53;;;122.70;;
8407;SDS011;4241;48.452;9.216;2023-04-25T10:21:58;418.70;;;122.13;;
8407;SDS011;4241;48.452;9.216;2023-04-25T10:24:31;415.37;;;118.30;;
8407;SDS011;4241;48.452;9.216;2023-04-25T10:26:59;417.37;;;120.63;;
8407;SDS011;4241;48.452;9.216;2023-04-25T10:29:27;415.63;;;119.50;;
8407;SDS011;4241;48.452;9.216;2023-04-25T10:31:55;421.23;;;124.13;;
8407;SDS011;4241;48.452;9.216;2023-04-25T10:34:33;413.30;;;116.90;;
8407;SDS011;4241;48.452;9.216;2023-04-25T10:37:04;412.90;;;116.13;;
8407;SDS011;4241;48.452;9.216;2023-04-25T10:39:37;411.63;;;115.27;;
8407;SDS011;4241;48.452;9.216;2023-04-25T10:42:05;411.73;;;115.50;;
8407;SDS011;4241;48.452;9.216;2023-04-25T10:44:32;412.70;;;116.27;;
8407;SDS011;4241;48.452;9.216;2023-04-25T10:47:00;413.60;;;116.77;;
8407;SDS011;4241;48.452;9.216;2023-04-25T10:49:30;416.70;;;119.10;;
8407;SDS011;4241;48.452;9.216;2023-04-25T10:52:13;416.40;;;119.90;;
8407;SDS011;4241;48.452;9.216;2023-04-25T10:54:42;412.43;;;115.97;;
8407;SDS011;4241;48.452;9.216;2023-04-25T10:57:28;414.70;;;117.90;;
8407;SDS011;4241;48.452;9.216;2023-04-25T11:00:00;410.90;;;115.60;;
8407;SDS011;4241;48.452;9.216;2023-04-25T11:02:31;410.93;;;116.07;;
8407;SDS011;4241;48.452;9.216;2023-04-25T11:04:59;410.13;;;114.03;;
8407;SDS011;4241;48.452;9.216;2023-04-25T11:07:29;411.13;;;115.97;;
8407;SDS011;4241;48.452;9.216;2023-04-25T11:10:01;413.30;;;116.50;;
8407;SDS011;4241;48.452;9.216;2023-04-25T11:12:30;413.10;;;116.80;;
8407;SDS011;4241;48.452;9.216;2023-04-25T11:15:01;412.13;;;115.77;;
8407;SDS011;4241;48.452;9.216;2023-04-25T11:17:29;414.87;;;118.57;;
8407;SDS011;4241;48.452;9.216;2023-04-25T11:19:56;417.37;;;118.57;;
8407;SDS011;4241;48.452;9.216;2023-04-25T11:22:26;413.93;;;116.73;;
8407;SDS011;4241;48.452;9.216;2023-04-25T11:24:53;415.53;;;117.67;;
8407;SDS011;4241;48.452;9.216;2023-04-25T11:27:20;414.63;;;117.17;;
8407;SDS011;4241;48.452;9.216;2023-04-25T11:29:49;415.10;;;118.10;;
8407;SDS011;4241;48.452;9.216;2023-04-25T11:32:17;414.77;;;117.80;;
8407;SDS011;4241;48.452;9.216;2023-04-25T11:34:45;414.97;;;118.47;;
8407;SDS011;4241;48.452;9.216;2023-04-25T11:37:13;413.63;;;117.27;;
8407;SDS011;4241;48.452;9.216;2023-04-25T11:39:45;416.47;;;119.17;;
8407;SDS011;4241;48.452;9.216;2023-04-25T11:42:12;416.07;;;119.03;;
8407;SDS011;4241;48.452;9.216;2023-04-25T11:44:39;417.03;;;119.17;;
8407;SDS011;4241;48.452;9.216;2023-04-25T11:47:06;417.17;;;118.60;;
8407;SDS011;4241;48.452;9.216;2023-04-25T11:49:33;415.57;;;118.67;;
8407;SDS011;4241;48.452;9.216;2023-04-25T11:52:00;417.27;;;119.30;;
8407;SDS011;4241;48.452;9.216;2023-04-25T11:54:27;415.67;;;117.50;;
8407;SDS011;4241;48.452;9.216;2023-04-25T11:56:56;414.23;;;117.90;;
8407;SDS011;4241;48.452;9.216;2023-04-25T11:59:23;413.43;;;116.67;;
8407;SDS011;4241;48.452;9.216;2023-04-25T12:01:51;414.73;;;117.80;;
8407;SDS011;4241;48.452;9.216;2023-04-25T12:04:19;415.00;;;118.67;;
8407;SDS011;4241;48.452;9.216;2023-04-25T12:06:48;417.67;;;120.80;;
8407;SDS011;4241;48.452;9.216;2023-04-25T12:09:16;414.40;;;116.90;;
8407;SDS011;4241;48.452;9.216;2023-04-25T12:11:44;410.83;;;115.13;;
8407;SDS011;4241;48.452;9.216;2023-04-25T12:14:23;414.23;;;116.70;;
8407;SDS011;4241;48.452;9.216;2023-04-25T12:16:52;416.93;;;118.73;;
8407;SDS011;4241;48.452;9.216;2023-04-25T12:19:22;414.93;;;118.27;;
8407;SDS011;4241;48.452;9.216;2023-04-25T12:21:50;414.97;;;117.93;;
8407;SDS011;4241;48.452;9.216;2023-04-25T12:24:17;414.03;;;116.07;;
8407;SDS011;4241;48.452;9.216;2023-04-25T12:26:53;417.93;;;119.17;;
8407;SDS011;4241;48.452;9.216;2023-04-25T12:29:27;416.03;;;118.77;;
8407;SDS011;4241;48.452;9.216;2023-04-25T12:31:55;417.80;;;120.33;;
8407;SDS011;4241;48.452;9.216;2023-04-25T12:34:22;418.77;;;120.23;;
8407;SDS011;4241;48.452;9.216;2023-04-25T12:36:50;418.37;;;119.20;;
8407;SDS011;4241;48.452;9.216;2023-04-25T12:39:18;419.63;;;120.10;;
8407;SDS011;4241;48.452;9.216;2023-04-25T12:41:46;419.20;;;120.13;;
8407;SDS011;4241;48.452;9.216;2023-04-25T12:44:13;420.37;;;121.13;;
8407;SDS011;4241;48.452;9.216;2023-04-25T12:46:42;420.97;;;121.40;;
8407;SDS011;4241;48.452;9.216;2023-04-25T12:49:10;421.87;;;121.77;;
8407;SDS011;4241;48.452;9.216;2023-04-25T12:51:37;421.77;;;121.47;;
8407;SDS011;4241;48.452;9.216;2023-04-25T12:54:04;416.93;;;118.13;;
8407;SDS011;4241;48.452;9.216;2023-04-25T12:56:32;422.83;;;124.17;;
8407;SDS011;4241;48.452;9.216;2023-04-25T12:58:59;421.50;;;121.57;;
8407;SDS011;4241;48.452;9.216;2023-04-25T13:01:27;422.27;;;122.37;;
8407;SDS011;4241;48.452;9.216;2023-04-25T13:03:55;422.30;;;121.83;;
8407;SDS011;4241;48.452;9.216;2023-04-25T13:06:22;422.73;;;122.13;;
8407;SDS011;4241;48.452;9.216;2023-04-25T13:08:49;425.13;;;125.67;;
8407;SDS011;4241;48.452;9.216;2023-04-25T13:11:16;429.17;;;128.10;;
8407;SDS011;4241;48.452;9.216;2023-04-25T13:13:43;426.13;;;125.07;;
8407;SDS011;4241;48.452;9.216;2023-04-25T13:16:10;426.83;;;125.23;;
8407;SDS011;4241;48.452;9.216;2023-04-25T13:18:39;426.73;;;126.23;;
8407;SDS011;4241;48.452;9.216;2023-04-25T13:21:07;429.57;;;127.77;;
8407;SDS011;4241;48.452;9.216;2023-04-25T13:23:36;431.40;;;129.67;;
8407;SDS011;4241;48.452;9.216;2023-04-25T13:26:03;425.83;;;125.77;;
8407;SDS011;4241;48.452;9.216;2023-04-25T13:28:30;429.80;;;128.27;;
8407;SDS011;4241;48.452;9.216;2023-04-25T13:30:57;429.80;;;128.17;;
8407;SDS011;4241;48.452;9.216;2023-04-25T13:33:24;427.57;;;126.57;;
8407;SDS011;4241;48.452;9.216;2023-04-25T13:35:51;432.10;;;130.30;;
8407;SDS011;4241;48.452;9.216;2023-04-25T13:38:22;429.93;;;128.17;;
8407;SDS011;4241;48.452;9.216;2023-04-25T13:40:50;428.90;;;127.23;;
8407;SDS011;4241;48.452;9.216;2023-04-25T13:43:18;427.23;;;125.70;;
8407;SDS011;4241;48.452;9.216;2023-04-25T13:45:45;428.63;;;127.60;;
8407;SDS011;4241;48.452;9.216;2023-04-25T13:48:12;429.20;;;127.40;;
8407;SDS011;4241;48.452;9.216;2023-04-25T13:50:39;432.47;;;129.80;;
8407;SDS011;4241;48.452;9.216;2023-04-25T13:53:06;431.90;;;128.80;;
8407;SDS011;4241;48.452;9.216;2023-04-25T13:55:35;440.37;;;137.20;;
8407;SDS011;4241;48.452;9.216;2023-04-25T13:58:03;433.87;;;132.30;;
8407;SDS011;4241;48.452;9.216;2023-04-25T14:00:33;437.00;;;133.97;;
8407;SDS011;4241;48.452;9.216;2023-04-25T14:03:02;438.93;;;136.93;;
8407;SDS011;4241;48.452;9.216;2023-04-25T14:05:32;439.07;;;136.20;;
8407;SDS011;4241;48.452;9.216;2023-04-25T14:08:03;436.47;;;135.53;;
8407;SDS011;4241;48.452;9.216;2023-04-25T14:10:30;436.23;;;134.77;;
8407;SDS011;4241;48.452;9.216;2023-04-25T14:12:59;433.80;;;132.93;;
8407;SDS011;4241;48.452;9.216;2023-04-25T14:15:28;444.77;;;142.90;;
8407;SDS011;4241;48.452;9.216;2023-04-25T14:17:55;436.50;;;134.57;;
8407;SDS011;4241;48.452;9.216;2023-04-25T14:20:22;439.43;;;136.57;;
8407;SDS011;4241;48.452;9.216;2023-04-25T14:22:49;437.50;;;134.83;;
8407;SDS011;4241;48.452;9.216;2023-04-25T14:25:17;438.40;;;135.23;;